Time;durP1;ratioP1;P1;durP2;ratioP2;P2;SDS_P1;SDS_P2;PMS_P1;PMS_P2;Temp;Humidity;BMP_temperature;BMP_pressure;BME280_temperature;BME280_humidity;BME280_pressure;Samples;Min_cycle;Max_cycle;Signal;HPM_P1;HPM_P2
2022/10/14 00:01:47;;;;;;;;;;;19.00;93.60;;;;;;5111111;27;20011;-64
2022/10/14 00:04:13;;;;;;;;;;;18.80;93.60;;;;;;5115457;28;20280;-63
2022/10/14 00:06:38;;;;;;;;;;;18.90;93.60;;;;;;5113784;27;19924;-63
2022/10/14 00:09:05;;;;;;;;;;;18.80;93.60;;;;;;5117549;27;20384;-65
2022/10/14 00:11:30;;;;;;;;;;;18.80;93.60;;;;;;5120724;27;19951;-62
2022/10/14 00:13:57;;;;;;;;;;;19.10;93.70;;;;;;5099573;28;20289;-62
2022/10/14 00:16:24;;;;;;;;;;;18.70;93.60;;;;;;5107295;27;19924;-62
2022/10/14 00:18:49;;;;;;;;;;;18.90;93.60;;;;;;5123383;27;19930;-62
2022/10/14 00:21:15;;;;;;;;;;;18.90;93.60;;;;;;5116887;28;20444;-63
2022/10/14 00:23:41;;;;;;;;;;;18.90;93.60;;;;;;5114326;27;19927;-62
2022/10/14 00:26:12;;;;;;;;;;;18.90;93.60;;;;;;5101193;27;20291;-62
2022/10/14 00:28:38;;;;;;;;;;;18.60;93.50;;;;;;5126644;27;19935;-63
2022/10/14 00:31:04;;;;;;;;;;;18.90;93.60;;;;;;5115959;27;19924;-66
2022/10/14 00:33:29;;;;;;;;;;;19.00;93.60;;;;;;5132188;27;19926;-62
2022/10/14 00:35:59;;;;;;;;;;;18.80;93.50;;;;;;5122750;27;19923;-61
2022/10/14 00:38:24;;;;;;;;;;;18.70;93.50;;;;;;5123537;27;19920;-66
2022/10/14 00:40:50;;;;;;;;;;;18.80;93.60;;;;;;5120271;27;19931;-68
2022/10/14 00:43:16;;;;;;;;;;;19.00;93.60;;;;;;5117280;27;20015;-63
2022/10/14 00:45:42;;;;;;;;;;;18.80;93.60;;;;;;5115559;28;19927;-62
2022/10/14 00:48:08;;;;;;;;;;;18.80;93.50;;;;;;5118718;27;19924;-62
2022/10/14 00:50:33;;;;;;;;;;;18.80;93.60;;;;;;5116471;28;20331;-62
2022/10/14 00:52:59;;;;;;;;;;;18.80;93.50;;;;;;5117171;27;19924;-62
2022/10/14 00:55:25;;;;;;;;;;;18.80;93.50;;;;;;5117145;28;19975;-63
2022/10/14 00:57:50;;;;;;;;;;;18.60;93.50;;;;;;5109277;28;19924;-61
2022/10/14 01:00:17;;;;;;;;;;;18.90;93.50;;;;;;5085416;28;19924;-64
2022/10/14 01:02:43;;;;;;;;;;;18.70;93.50;;;;;;5117590;27;19924;-62
2022/10/14 01:05:09;;;;;;;;;;;19.00;93.60;;;;;;5116440;27;19923;-62
2022/10/14 01:07:39;;;;;;;;;;;18.90;93.60;;;;;;5112879;28;20293;-61
2022/10/14 01:10:20;;;;;;;;;;;18.80;93.50;;;;;;5119611;27;20032;-63
2022/10/14 01:13:04;;;;;;;;;;;18.60;93.50;;;;;;5112882;27;20278;-62
2022/10/14 01:15:30;;;;;;;;;;;18.80;93.60;;;;;;5120545;27;20458;-66
2022/10/14 01:18:16;;;;;;;;;;;18.80;93.50;;;;;;5112897;28;20018;-62
2022/10/14 01:20:54;;;;;;;;;;;18.80;93.50;;;;;;5108604;28;20075;-62
2022/10/14 01:23:20;;;;;;;;;;;18.70;93.50;;;;;;5114067;27;19924;-63
2022/10/14 01:25:57;;;;;;;;;;;18.60;93.50;;;;;;5121124;27;20436;-65
2022/10/14 01:28:29;;;;;;;;;;;18.80;93.50;;;;;;5124162;27;19928;-63
2022/10/14 01:30:56;;;;;;;;;;;18.90;93.50;;;;;;5107561;28;19924;-63
2022/10/14 01:33:22;;;;;;;;;;;18.80;93.50;;;;;;5114402;27;20065;-65
2022/10/14 01:35:57;;;;;;;;;;;18.70;93.50;;;;;;5098101;28;19924;-62
2022/10/14 01:38:27;;;;;;;;;;;18.70;93.50;;;;;;5120826;27;19976;-64
2022/10/14 01:41:04;;;;;;;;;;;18.90;93.50;;;;;;5113526;27;19935;-66
2022/10/14 01:43:30;;;;;;;;;;;18.80;93.50;;;;;;5099159;27;19931;-62
2022/10/14 01:45:55;;;;;;;;;;;18.70;93.50;;;;;;5112778;28;19924;-64
2022/10/14 01:48:22;;;;;;;;;;;19.00;93.60;;;;;;5109374;27;20396;-63
2022/10/14 01:50:47;;;;;;;;;;;18.70;93.70;;;;;;5097346;28;20400;-62
2022/10/14 01:53:14;;;;;;;;;;;18.90;93.50;;;;;;5089333;28;19924;-63
2022/10/14 01:55:43;;;;;;;;;;;18.60;93.50;;;;;;5080722;28;19963;-62
2022/10/14 01:58:09;;;;;;;;;;;18.70;93.50;;;;;;5097361;28;20297;-63
2022/10/14 02:00:34;;;;;;;;;;;18.80;93.50;;;;;;5110967;27;19924;-64
2022/10/14 02:03:00;;;;;;;;;;;18.70;93.50;;;;;;5114879;27;19950;-62
2022/10/14 02:05:44;;;;;;;;;;;18.80;93.50;;;;;;5107799;28;19935;-64
2022/10/14 02:08:30;;;;;;;;;;;18.80;93.50;;;;;;5114006;27;19954;-65
2022/10/14 02:11:03;;;;;;;;;;;18.60;93.40;;;;;;5105794;27;19967;-65
2022/10/14 02:13:47;;;;;;;;;;;18.70;93.50;;;;;;5110777;27;20016;-64
2022/10/14 02:16:17;;;;;;;;;;;18.50;93.40;;;;;;5118105;27;20004;-64
2022/10/14 02:18:46;;;;;;;;;;;18.60;93.40;;;;;;5112516;27;19923;-63
2022/10/14 02:21:16;;;;;;;;;;;18.60;93.40;;;;;;5075738;28;19928;-62
2022/10/14 02:23:44;;;;;;;;;;;18.70;93.50;;;;;;5093648;28;19931;-63
2022/10/14 02:26:09;;;;;;;;;;;18.70;93.40;;;;;;5092496;28;19920;-62
2022/10/14 02:28:35;;;;;;;;;;;18.80;93.50;;;;;;5115930;27;20324;-65
2022/10/14 02:31:04;;;;;;;;;;;18.90;93.50;;;;;;5100758;27;19926;-62
2022/10/14 02:33:32;;;;;;;;;;;18.80;93.50;;;;;;5090640;27;19977;-62
2022/10/14 02:35:57;;;;;;;;;;;18.70;93.40;;;;;;5109765;27;19924;-62
2022/10/14 02:38:23;;;;;;;;;;;;;;;;;;5123908;27;19919;-63
2022/10/14 02:40:49;;;;;;;;;;;18.60;93.40;;;;;;5114187;27;19923;-64
2022/10/14 02:43:15;;;;;;;;;;;18.80;93.50;;;;;;5116621;27;19985;-65
2022/10/14 02:45:41;;;;;;;;;;;18.80;93.50;;;;;;5078079;28;20397;-64
2022/10/14 02:48:07;;;;;;;;;;;18.80;93.40;;;;;;5113355;27;19923;-62
2022/10/14 02:50:32;;;;;;;;;;;18.60;93.40;;;;;;5128578;27;20301;-64
2022/10/14 02:52:58;;;;;;;;;;;18.70;93.40;;;;;;5106472;27;19969;-62
2022/10/14 02:55:24;;;;;;;;;;;18.90;93.50;;;;;;5116667;27;20002;-63
2022/10/14 02:57:49;;;;;;;;;;;18.80;93.50;;;;;;5114673;27;19946;-62
2022/10/14 03:00:15;;;;;;;;;;;18.60;93.40;;;;;;5113592;28;20365;-62
2022/10/14 03:02:40;;;;;;;;;;;18.80;93.50;;;;;;5108690;27;19923;-62
2022/10/14 03:05:06;;;;;;;;;;;18.30;93.30;;;;;;5114293;28;19924;-62
2022/10/14 03:07:32;;;;;;;;;;;18.60;93.40;;;;;;5097897;28;20475;-63
2022/10/14 03:09:58;;;;;;;;;;;18.70;93.40;;;;;;5113487;27;20007;-64
2022/10/14 03:12:23;;;;;;;;;;;18.40;93.30;;;;;;5114117;28;19924;-64
2022/10/14 03:14:49;;;;;;;;;;;18.80;93.40;;;;;;5111663;28;19963;-66
2022/10/14 03:17:15;;;;;;;;;;;18.50;93.30;;;;;;5116993;28;20434;-62
2022/10/14 03:19:40;;;;;;;;;;;18.60;93.40;;;;;;5107038;28;19941;-63
2022/10/14 03:22:06;;;;;;;;;;;18.50;93.30;;;;;;5118978;28;19946;-64
2022/10/14 03:24:31;;;;;;;;;;;18.70;93.40;;;;;;5110931;28;19928;-65
2022/10/14 03:26:57;;;;;;;;;;;18.50;93.30;;;;;;5113934;28;20377;-63
2022/10/14 03:29:23;;;;;;;;;;;18.60;93.30;;;;;;5128997;28;19930;-67
2022/10/14 03:31:48;;;;;;;;;;;18.80;93.40;;;;;;5116775;28;20361;-63
2022/10/14 03:34:14;;;;;;;;;;;18.80;93.40;;;;;;5115433;28;19920;-62
2022/10/14 03:36:39;;;;;;;;;;;18.90;93.40;;;;;;5113954;28;19930;-66
2022/10/14 03:39:05;;;;;;;;;;;18.60;93.30;;;;;;5108914;28;20003;-66
2022/10/14 03:41:31;;;;;;;;;;;18.50;93.30;;;;;;5114392;28;20035;-66
2022/10/14 03:43:56;;;;;;;;;;;18.50;93.30;;;;;;5113709;28;19924;-66
2022/10/14 03:46:22;;;;;;;;;;;18.40;93.20;;;;;;5108363;28;19931;-65
2022/10/14 03:48:47;;;;;;;;;;;18.80;93.40;;;;;;5114017;28;19924;-62
2022/10/14 03:51:13;;;;;;;;;;;18.60;93.30;;;;;;5112147;28;20022;-64
2022/10/14 03:53:39;;;;;;;;;;;18.80;93.30;;;;;;5096339;28;19924;-62
2022/10/14 03:56:05;;;;;;;;;;;18.70;93.30;;;;;;5102241;28;19930;-64
2022/10/14 03:58:31;;;;;;;;;;;18.80;93.30;;;;;;5123197;28;19927;-62
2022/10/14 04:00:56;;;;;;;;;;;18.50;93.30;;;;;;5107813;28;19930;-64
2022/10/14 04:03:22;;;;;;;;;;;18.60;93.30;;;;;;5125548;28;19924;-63
2022/10/14 04:05:48;;;;;;;;;;;18.60;93.30;;;;;;5120026;28;19919;-64
2022/10/14 04:08:13;;;;;;;;;;;18.50;93.20;;;;;;5129728;28;20296;-68
2022/10/14 04:10:39;;;;;;;;;;;18.50;93.20;;;;;;5110527;28;20010;-65
2022/10/14 04:13:05;;;;;;;;;;;18.40;93.20;;;;;;5118191;28;19930;-63
2022/10/14 04:15:30;;;;;;;;;;;18.60;93.30;;;;;;5110276;28;20005;-62
2022/10/14 04:17:56;;;;;;;;;;;;;;;;;;5115452;28;19985;-64
2022/10/14 04:20:22;;;;;;;;;;;18.50;93.20;;;;;;5115652;28;19946;-62
2022/10/14 04:22:47;;;;;;;;;;;18.40;93.20;;;;;;5121420;27;19924;-63
2022/10/14 04:25:13;;;;;;;;;;;18.60;93.30;;;;;;5106814;27;20010;-62
2022/10/14 04:27:39;;;;;;;;;;;18.60;93.20;;;;;;5128652;27;19924;-62
2022/10/14 04:30:04;;;;;;;;;;;18.40;93.20;;;;;;5121223;27;19924;-64
2022/10/14 04:32:30;;;;;;;;;;;18.60;93.20;;;;;;5108913;28;19932;-65
2022/10/14 04:34:56;;;;;;;;;;;;;;;;;;5116578;28;19924;-65
2022/10/14 04:37:22;;;;;;;;;;;18.70;93.20;;;;;;5107913;27;19931;-63
2022/10/14 04:39:48;;;;;;;;;;;18.40;93.20;;;;;;5118567;27;20289;-67
2022/10/14 04:42:13;;;;;;;;;;;18.40;93.20;;;;;;5116073;28;19946;-65
2022/10/14 04:44:39;;;;;;;;;;;18.70;93.30;;;;;;5117812;27;20445;-64
2022/10/14 04:47:05;;;;;;;;;;;18.50;93.20;;;;;;5116607;28;19924;-62
2022/10/14 04:49:30;;;;;;;;;;;18.60;93.20;;;;;;5121164;27;20012;-62
2022/10/14 04:51:56;;;;;;;;;;;18.50;93.20;;;;;;5115113;27;20293;-61
2022/10/14 04:54:21;;;;;;;;;;;18.50;93.20;;;;;;5115772;27;20445;-62
2022/10/14 04:56:47;;;;;;;;;;;18.80;93.30;;;;;;5119219;27;19927;-61
2022/10/14 04:59:13;;;;;;;;;;;18.50;93.20;;;;;;5111727;27;19959;-63
2022/10/14 05:01:38;;;;;;;;;;;18.50;93.20;;;;;;5114744;27;19931;-63
2022/10/14 05:04:04;;;;;;;;;;;18.60;93.20;;;;;;5109786;28;20468;-62
2022/10/14 05:06:30;;;;;;;;;;;18.40;93.20;;;;;;5116009;27;20007;-63
2022/10/14 05:08:55;;;;;;;;;;;18.40;93.20;;;;;;5134908;27;20399;-66
2022/10/14 05:11:21;;;;;;;;;;;18.50;93.20;;;;;;5114464;27;20343;-62
2022/10/14 05:13:47;;;;;;;;;;;18.50;93.10;;;;;;5132318;27;20360;-62
2022/10/14 05:16:12;;;;;;;;;;;18.20;93.10;;;;;;5115638;27;19923;-63
2022/10/14 05:18:38;;;;;;;;;;;18.70;93.20;;;;;;5116536;28;20061;-64
2022/10/14 05:21:04;;;;;;;;;;;18.40;93.10;;;;;;5114247;27;19997;-63
2022/10/14 05:23:29;;;;;;;;;;;18.40;93.10;;;;;;5115852;27;19935;-62
2022/10/14 05:25:55;;;;;;;;;;;18.40;93.10;;;;;;5111861;27;21937;-62
2022/10/14 05:28:21;;;;;;;;;;;18.50;93.10;;;;;;5122085;27;20303;-66
2022/10/14 05:30:46;;;;;;;;;;;18.40;93.10;;;;;;5123404;27;19931;-65
2022/10/14 05:33:12;;;;;;;;;;;18.70;93.20;;;;;;5115073;27;19926;-65
2022/10/14 05:35:38;;;;;;;;;;;18.40;93.10;;;;;;5115315;27;19930;-63
2022/10/14 05:38:03;;;;;;;;;;;18.80;93.20;;;;;;5119981;27;19919;-65
2022/10/14 05:40:29;;;;;;;;;;;18.50;93.10;;;;;;5106881;27;20285;-65
2022/10/14 05:42:54;;;;;;;;;;;18.70;93.20;;;;;;5117919;27;19928;-65
2022/10/14 05:45:20;;;;;;;;;;;18.20;93.10;;;;;;5120034;27;19923;-68
2022/10/14 05:47:46;;;;;;;;;;;18.50;93.10;;;;;;5112389;27;19939;-63
2022/10/14 05:50:11;;;;;;;;;;;18.60;93.10;;;;;;5114273;28;20046;-65
2022/10/14 05:52:38;;;;;;;;;;;18.60;93.10;;;;;;5094980;28;20421;-62
2022/10/14 05:55:04;;;;;;;;;;;18.50;93.20;;;;;;5114022;28;19923;-64
2022/10/14 05:57:30;;;;;;;;;;;18.20;93.10;;;;;;5111410;27;19924;-64
2022/10/14 05:59:55;;;;;;;;;;;18.60;93.30;;;;;;5121603;27;19969;-62
2022/10/14 06:02:21;;;;;;;;;;;18.70;93.30;;;;;;5109059;27;20269;-63
2022/10/14 06:04:47;;;;;;;;;;;18.50;93.20;;;;;;5115294;27;19923;-66
2022/10/14 06:07:12;;;;;;;;;;;18.60;93.20;;;;;;5100317;27;19923;-64
2022/10/14 06:09:38;;;;;;;;;;;18.40;93.20;;;;;;5127928;27;19931;-67
2022/10/14 06:12:04;;;;;;;;;;;18.40;93.10;;;;;;5114741;27;20064;-65
2022/10/14 06:14:30;;;;;;;;;;;18.50;93.10;;;;;;5111917;27;19976;-62
2022/10/14 06:16:55;;;;;;;;;;;18.50;93.10;;;;;;5120852;27;19928;-64
2022/10/14 06:19:21;;;;;;;;;;;18.60;93.10;;;;;;5083664;28;20023;-62
2022/10/14 06:21:47;;;;;;;;;;;18.70;93.10;;;;;;5131024;27;20017;-63
2022/10/14 06:24:12;;;;;;;;;;;18.70;93.20;;;;;;5115963;27;19931;-63
2022/10/14 06:26:38;;;;;;;;;;;18.70;93.10;;;;;;5135351;27;20018;-64
2022/10/14 06:29:04;;;;;;;;;;;;;;;;;;5126996;27;19924;-64
2022/10/14 06:31:30;;;;;;;;;;;18.70;93.10;;;;;;5120797;27;20369;-67
2022/10/14 06:33:56;;;;;;;;;;;18.80;93.10;;;;;;5112688;27;19919;-62
2022/10/14 06:36:21;;;;;;;;;;;18.80;93.10;;;;;;5115469;27;20404;-62
2022/10/14 06:38:47;;;;;;;;;;;18.80;93.10;;;;;;5113594;28;20422;-70
2022/10/14 06:41:12;;;;;;;;;;;18.80;93.10;;;;;;5115652;27;19930;-64
2022/10/14 06:43:38;;;;;;;;;;;;;;;;;;5124883;27;20007;-65
2022/10/14 06:46:04;;;;;;;;;;;18.80;93.00;;;;;;5119836;27;20013;-62
2022/10/14 06:48:30;;;;;;;;;;;18.80;93.10;;;;;;5111620;27;20101;-64
2022/10/14 06:50:59;;;;;;;;;;;18.90;93.10;;;;;;5117038;27;20006;-62
2022/10/14 06:53:25;;;;;;;;;;;18.80;93.10;;;;;;5094914;27;20380;-62
2022/10/14 06:56:00;;;;;;;;;;;18.60;93.00;;;;;;5119805;27;20332;-64
2022/10/14 06:58:26;;;;;;;;;;;18.80;93.20;;;;;;5117000;27;19971;-64
2022/10/14 07:00:52;;;;;;;;;;;18.80;93.20;;;;;;5109610;27;19963;-68
2022/10/14 07:03:17;;;;;;;;;;;19.00;93.30;;;;;;5096296;28;19946;-67
2022/10/14 07:05:43;;;;;;;;;;;18.80;93.20;;;;;;5121697;27;19932;-66
2022/10/14 07:08:09;;;;;;;;;;;18.80;93.20;;;;;;5073356;28;19931;-66
2022/10/14 07:10:34;;;;;;;;;;;18.70;93.20;;;;;;5091848;28;19924;-70
2022/10/14 07:13:02;;;;;;;;;;;18.80;93.30;;;;;;5113821;28;20265;-72
2022/10/14 07:15:27;;;;;;;;;;;19.00;93.30;;;;;;5107466;28;19924;-72
2022/10/14 07:17:53;;;;;;;;;;;19.10;93.20;;;;;;5086516;28;19974;-73
2022/10/14 07:20:19;;;;;;;;;;;18.70;93.10;;;;;;5092295;28;19924;-71
2022/10/14 07:22:44;;;;;;;;;;;18.60;93.00;;;;;;5108113;28;20027;-65
2022/10/14 07:25:10;;;;;;;;;;;18.80;93.10;;;;;;5114388;28;20448;-71
2022/10/14 07:27:36;;;;;;;;;;;19.00;93.00;;;;;;5103609;28;20393;-71
2022/10/14 07:30:01;;;;;;;;;;;18.80;93.00;;;;;;5114104;28;19931;-69
2022/10/14 07:32:27;;;;;;;;;;;19.10;92.70;;;;;;5093938;28;19924;-66
2022/10/14 07:34:53;;;;;;;;;;;18.90;92.90;;;;;;5098278;28;19928;-62
2022/10/14 07:37:18;;;;;;;;;;;18.90;92.90;;;;;;5103918;28;19931;-62
2022/10/14 07:39:44;;;;;;;;;;;18.90;92.90;;;;;;5094655;28;19924;-62
2022/10/14 07:42:10;;;;;;;;;;;19.00;92.90;;;;;;5092194;28;20381;-62
2022/10/14 07:44:38;;;;;;;;;;;19.20;92.90;;;;;;5091347;28;19924;-63
2022/10/14 07:47:04;;;;;;;;;;;19.10;92.90;;;;;;5094712;28;19927;-62
2022/10/14 07:49:30;;;;;;;;;;;19.00;92.80;;;;;;5107927;28;19924;-64
2022/10/14 07:51:55;;;;;;;;;;;19.00;92.80;;;;;;5113911;28;19946;-63
2022/10/14 07:54:22;;;;;;;;;;;;;;;;;;5110458;28;21824;-64
2022/10/14 07:56:50;;;;;;;;;;;18.90;92.70;;;;;;5113497;28;20327;-63
2022/10/14 07:59:19;;;;;;;;;;;18.90;92.50;;;;;;5097736;28;19920;-65
2022/10/14 08:01:45;;;;;;;;;;;18.90;92.50;;;;;;5113882;28;19923;-63
2022/10/14 08:04:11;;;;;;;;;;;18.80;92.50;;;;;;5096157;28;19928;-63
2022/10/14 08:06:36;;;;;;;;;;;18.60;92.40;;;;;;5097584;28;19978;-62
2022/10/14 08:09:05;;;;;;;;;;;18.90;92.60;;;;;;5099676;28;20293;-65
2022/10/14 08:11:31;;;;;;;;;;;19.10;92.60;;;;;;5119434;27;20016;-62
2022/10/14 08:13:57;;;;;;;;;;;18.90;92.60;;;;;;5117581;27;19948;-64
2022/10/14 08:16:26;;;;;;;;;;;18.90;92.60;;;;;;5097778;27;19943;-68
2022/10/14 08:18:53;;;;;;;;;;;18.90;92.60;;;;;;5136827;27;19923;-63
2022/10/14 08:21:19;;;;;;;;;;;18.80;92.60;;;;;;5113125;27;19976;-62
2022/10/14 08:23:45;;;;;;;;;;;18.70;92.50;;;;;;5117698;28;20401;-63
2022/10/14 08:26:18;;;;;;;;;;;18.80;92.60;;;;;;5117301;28;20031;-62
2022/10/14 08:28:43;;;;;;;;;;;19.00;92.70;;;;;;5119485;27;19924;-62
2022/10/14 08:31:09;;;;;;;;;;;19.10;92.70;;;;;;5126244;27;19930;-63
2022/10/14 08:33:35;;;;;;;;;;;18.90;92.60;;;;;;5116788;27;19967;-62
2022/10/14 08:36:00;;;;;;;;;;;18.80;92.60;;;;;;5117711;28;19973;-63
2022/10/14 08:38:27;;;;;;;;;;;19.10;92.60;;;;;;5119197;27;19924;-61
2022/10/14 08:40:56;;;;;;;;;;;19.00;92.60;;;;;;5116587;27;19923;-62
2022/10/14 08:43:25;;;;;;;;;;;19.10;92.70;;;;;;5118138;27;19946;-62
2022/10/14 08:45:53;;;;;;;;;;;19.10;92.70;;;;;;5117831;27;19967;-62
2022/10/14 08:48:20;;;;;;;;;;;18.90;92.60;;;;;;5099992;28;19924;-62
2022/10/14 08:50:47;;;;;;;;;;;19.10;92.50;;;;;;5097715;28;20438;-62
2022/10/14 08:53:13;;;;;;;;;;;19.00;92.60;;;;;;5103052;27;19949;-62
2022/10/14 08:55:45;;;;;;;;;;;19.00;92.60;;;;;;5113261;28;19930;-62
2022/10/14 08:58:23;;;;;;;;;;;18.90;92.60;;;;;;5115988;27;20003;-63
2022/10/14 09:00:49;;;;;;;;;;;19.00;92.50;;;;;;5120084;27;20015;-63
2022/10/14 09:03:17;;;;;;;;;;;19.10;92.60;;;;;;5116948;27;20287;-63
2022/10/14 09:05:43;;;;;;;;;;;19.10;92.50;;;;;;5113484;27;19968;-65
2022/10/14 09:08:11;;;;;;;;;;;19.20;92.50;;;;;;5109744;28;19924;-69
2022/10/14 09:10:38;;;;;;;;;;;19.10;92.50;;;;;;5116691;28;19947;-63
2022/10/14 09:13:08;;;;;;;;;;;19.20;92.40;;;;;;5098223;28;19924;-62
2022/10/14 09:15:36;;;;;;;;;;;19.10;92.40;;;;;;5128718;27;19942;-67
2022/10/14 09:18:06;;;;;;;;;;;19.10;92.40;;;;;;5118792;27;19976;-67
2022/10/14 09:20:31;;;;;;;;;;;19.10;92.30;;;;;;5137021;27;20378;-64
2022/10/14 09:23:03;;;;;;;;;;;19.40;92.40;;;;;;5120969;27;19977;-63
2022/10/14 09:25:29;;;;;;;;;;;19.20;92.30;;;;;;5117117;27;19931;-65
2022/10/14 09:27:54;;;;;;;;;;;19.50;92.40;;;;;;5098169;28;19924;-63
2022/10/14 09:30:20;;;;;;;;;;;19.00;92.30;;;;;;5116371;28;19928;-63
2022/10/14 09:32:49;;;;;;;;;;;19.30;92.40;;;;;;5097960;28;19920;-64
2022/10/14 09:35:19;;;;;;;;;;;19.30;92.40;;;;;;5116298;28;20292;-63
2022/10/14 09:37:44;;;;;;;;;;;19.20;92.30;;;;;;5132654;27;19920;-65
2022/10/14 09:40:16;;;;;;;;;;;19.40;92.40;;;;;;5119114;27;19927;-67
2022/10/14 09:42:47;;;;;;;;;;;19.20;91.90;;;;;;5116129;28;20022;-64
2022/10/14 09:45:14;;;;;;;;;;;19.40;92.30;;;;;;5097592;28;19924;-62
2022/10/14 09:47:42;;;;;;;;;;;19.50;92.20;;;;;;5107820;27;19923;-62
2022/10/14 09:50:08;;;;;;;;;;;19.40;92.20;;;;;;5117992;27;19971;-61
2022/10/14 09:52:36;;;;;;;;;;;19.60;92.20;;;;;;5136455;27;19927;-63
2022/10/14 09:55:01;;;;;;;;;;;19.20;92.10;;;;;;5117710;27;20291;-63
2022/10/14 09:57:27;;;;;;;;;;;19.20;92.00;;;;;;5114162;27;20014;-62
2022/10/14 09:59:59;;;;;;;;;;;19.40;92.10;;;;;;5115731;28;19924;-64
2022/10/14 10:02:33;;;;;;;;;;;19.50;92.10;;;;;;5117388;27;19928;-62
2022/10/14 10:05:06;;;;;;;;;;;19.30;92.00;;;;;;5114144;27;19976;-64
2022/10/14 10:07:33;;;;;;;;;;;19.40;92.10;;;;;;5117857;27;19923;-64
2022/10/14 10:09:59;;;;;;;;;;;19.50;92.10;;;;;;5135869;27;19931;-63
2022/10/14 10:12:32;;;;;;;;;;;19.50;92.10;;;;;;5131223;27;19932;-62
2022/10/14 10:14:58;;;;;;;;;;;19.40;92.10;;;;;;5115519;28;20057;-63
2022/10/14 10:17:26;;;;;;;;;;;19.50;92.10;;;;;;5114388;28;19928;-62
2022/10/14 10:19:51;;;;;;;;;;;19.10;92.00;;;;;;5097226;28;19924;-64
2022/10/14 10:22:25;;;;;;;;;;;19.20;92.00;;;;;;5097753;28;19931;-62
2022/10/14 10:25:11;;;;;;;;;;;19.30;92.10;;;;;;5115188;28;19934;-62
2022/10/14 10:27:41;;;;;;;;;;;19.30;92.10;;;;;;5100407;28;19928;-63
2022/10/14 10:30:26;;;;;;;;;;;19.50;92.20;;;;;;5097779;28;19958;-63
2022/10/14 10:32:51;;;;;;;;;;;19.30;92.10;;;;;;5113882;27;20012;-64
2022/10/14 10:35:20;;;;;;;;;;;19.40;92.10;;;;;;5108200;27;19969;-62
2022/10/14 10:37:52;;;;;;;;;;;19.50;92.20;;;;;;5135414;27;20296;-64
2022/10/14 10:40:19;;;;;;;;;;;19.40;91.80;;;;;;5135206;27;20373;-69
2022/10/14 10:42:54;;;;;;;;;;;19.40;92.20;;;;;;5115405;27;19924;-63
2022/10/14 10:45:25;;;;;;;;;;;19.00;92.10;;;;;;5112619;27;20388;-63
2022/10/14 10:48:02;;;;;;;;;;;19.20;91.80;;;;;;5128790;27;19927;-65
2022/10/14 10:50:28;;;;;;;;;;;19.40;92.20;;;;;;5134249;27;19923;-62
2022/10/14 10:53:00;;;;;;;;;;;19.20;92.20;;;;;;5117076;27;20368;-67
2022/10/14 10:55:34;;;;;;;;;;;19.30;92.20;;;;;;5114086;27;20006;-62
2022/10/14 10:58:11;;;;;;;;;;;19.40;92.30;;;;;;5114480;28;19930;-62
2022/10/14 11:00:38;;;;;;;;;;;19.20;92.20;;;;;;5096244;28;19931;-68
2022/10/14 11:03:23;;;;;;;;;;;19.40;92.30;;;;;;5096661;28;20335;-62
2022/10/14 11:05:55;;;;;;;;;;;19.30;92.30;;;;;;5125871;27;19931;-62
2022/10/14 11:14:15;;;;;;;;;;;19.10;92.20;;;;;;5099341;28;19931;-68
2022/10/14 11:16:41;;;;;;;;;;;19.20;92.30;;;;;;5096988;28;19934;-68
2022/10/14 11:19:07;;;;;;;;;;;19.60;92.50;;;;;;5115227;28;19923;-63
2022/10/14 11:21:42;;;;;;;;;;;19.00;92.20;;;;;;5108429;28;19927;-69
2022/10/14 11:24:28;;;;;;;;;;;19.10;91.90;;;;;;5134738;28;19931;-67
2022/10/14 11:27:13;;;;;;;;;;;19.40;92.30;;;;;;5109160;28;19924;-69
2022/10/14 11:29:39;;;;;;;;;;;;;;;;;;5117553;27;19924;-68
2022/10/14 11:32:16;;;;;;;;;;;19.10;92.30;;;;;;5118416;28;20059;-67
2022/10/14 11:35:01;;;;;;;;;;;19.40;92.50;;;;;;5118983;28;19970;-64
2022/10/14 11:37:39;;;;;;;;;;;19.40;92.70;;;;;;5102715;27;19923;-66
2022/10/14 11:40:10;;;;;;;;;;;19.10;92.80;;;;;;5118221;27;19923;-67
2022/10/14 11:42:51;;;;;;;;;;;19.10;92.90;;;;;;5100013;28;20369;-64
2022/10/14 11:45:27;;;;;;;;;;;19.00;92.90;;;;;;5100215;28;19992;-64
2022/10/14 11:47:53;;;;;;;;;;;19.20;93.20;;;;;;5082875;28;19924;-64
2022/10/14 11:50:26;;;;;;;;;;;19.00;93.20;;;;;;5099741;28;19938;-70
2022/10/14 11:52:54;;;;;;;;;;;18.80;93.30;;;;;;5117697;27;20405;-70
2022/10/14 11:55:22;;;;;;;;;;;19.00;93.50;;;;;;5100404;28;19931;-62
2022/10/14 11:57:52;;;;;;;;;;;19.00;93.50;;;;;;5118489;27;19947;-63
2022/10/14 12:00:20;;;;;;;;;;;19.10;93.50;;;;;;5121751;27;19924;-62
2022/10/14 12:03:07;;;;;;;;;;;18.70;93.50;;;;;;5117589;28;19924;-71
2022/10/14 12:05:32;;;;;;;;;;;19.00;93.60;;;;;;5118048;28;19923;-74
2022/10/14 12:08:01;;;;;;;;;;;19.00;93.60;;;;;;5117643;28;20420;-74
2022/10/14 12:10:37;;;;;;;;;;;19.00;93.60;;;;;;5120748;27;19923;-73
2022/10/14 12:13:06;;;;;;;;;;;19.10;93.70;;;;;;5103742;28;20292;-73
2022/10/14 12:15:32;;;;;;;;;;;18.90;93.60;;;;;;5100208;28;19923;-73
2022/10/14 12:17:59;;;;;;;;;;;19.00;93.60;;;;;;5099534;28;19931;-73
2022/10/14 12:20:43;;;;;;;;;;;18.80;93.60;;;;;;5099167;28;19924;-72
2022/10/14 12:23:11;;;;;;;;;;;18.80;93.60;;;;;;5137357;27;19970;-73
2022/10/14 12:25:39;;;;;;;;;;;18.90;93.70;;;;;;5138088;27;19926;-74
2022/10/14 12:28:05;;;;;;;;;;;;;;;;;;5119951;27;19923;-71
2022/10/14 12:30:35;;;;;;;;;;;18.90;93.70;;;;;;5117888;27;19931;-74
2022/10/14 12:33:01;;;;;;;;;;;18.90;93.70;;;;;;5099888;28;19980;-72
2022/10/14 12:35:45;;;;;;;;;;;18.80;93.70;;;;;;5117177;28;19924;-73
2022/10/14 12:38:11;;;;;;;;;;;19.00;93.80;;;;;;5117431;28;19928;-74
2022/10/14 12:40:37;;;;;;;;;;;18.80;93.70;;;;;;5115837;28;20297;-72
2022/10/14 12:43:03;;;;;;;;;;;18.70;93.70;;;;;;5107441;27;19923;-72
2022/10/14 12:45:30;;;;;;;;;;;18.70;93.70;;;;;;5134405;27;19925;-71
2022/10/14 12:48:03;;;;;;;;;;;19.00;93.80;;;;;;5098948;28;19927;-69
2022/10/14 12:50:30;;;;;;;;;;;19.00;93.80;;;;;;5098686;28;19923;-72
2022/10/14 12:52:57;;;;;;;;;;;19.00;93.80;;;;;;5117410;27;19967;-67
2022/10/14 12:55:23;;;;;;;;;;;19.10;93.90;;;;;;5119449;27;19923;-71
2022/10/14 12:57:53;;;;;;;;;;;19.00;94.10;;;;;;5119352;27;19920;-73
2022/10/14 13:00:22;;;;;;;;;;;19.00;93.80;;;;;;5119850;27;20276;-74
2022/10/14 13:03:08;;;;;;;;;;;18.90;93.80;;;;;;5130979;27;19924;-69
2022/10/14 13:05:35;;;;;;;;;;;19.00;93.80;;;;;;5110241;27;19983;-74
2022/10/14 13:08:19;;;;;;;;;;;18.70;93.70;;;;;;5137340;27;19927;-69
2022/10/14 13:10:49;;;;;;;;;;;18.90;93.40;;;;;;5132657;27;20293;-73
2022/10/14 13:13:33;;;;;;;;;;;19.10;93.90;;;;;;5116766;28;19924;-71
2022/10/14 13:15:59;;;;;;;;;;;19.00;93.90;;;;;;5112928;28;19930;-61
2022/10/14 13:18:36;;;;;;;;;;;18.80;93.70;;;;;;5103263;28;19928;-72
2022/10/14 13:21:02;;;;;;;;;;;19.10;93.80;;;;;;5097445;28;19924;-71
2022/10/14 13:23:37;;;;;;;;;;;18.90;93.70;;;;;;5112023;28;19924;-62
2022/10/14 13:26:06;;;;;;;;;;;18.90;93.80;;;;;;5115040;28;20346;-62
2022/10/14 13:28:35;;;;;;;;;;;18.80;93.70;;;;;;5115133;28;20380;-62
2022/10/14 13:31:07;;;;;;;;;;;19.10;93.80;;;;;;5081673;28;20430;-74
2022/10/14 13:33:36;;;;;;;;;;;19.00;93.30;;;;;;5094695;28;19924;-62
2022/10/14 13:36:14;;;;;;;;;;;19.10;93.80;;;;;;5094574;28;20285;-72
2022/10/14 13:38:41;;;;;;;;;;;18.90;93.30;;;;;;5095749;28;20278;-65
2022/10/14 13:41:09;;;;;;;;;;;18.80;93.70;;;;;;5095915;28;19982;-74
2022/10/14 13:43:36;;;;;;;;;;;19.10;94.00;;;;;;5094242;28;19970;-62
2022/10/14 13:46:05;;;;;;;;;;;18.80;93.70;;;;;;5094669;28;20281;-62
2022/10/14 13:48:35;;;;;;;;;;;18.90;93.70;;;;;;5094400;28;19924;-62
2022/10/14 13:51:16;;;;;;;;;;;18.80;93.70;;;;;;5100181;28;19980;-63
2022/10/14 13:53:54;;;;;;;;;;;19.20;93.80;;;;;;5110839;28;19924;-62
2022/10/14 13:56:21;;;;;;;;;;;18.80;93.80;;;;;;5095117;28;19975;-63
2022/10/14 13:58:47;;;;;;;;;;;19.20;93.90;;;;;;5095454;28;19931;-67
2022/10/14 14:01:13;;;;;;;;;;;19.00;93.90;;;;;;5109440;28;20301;-65
2022/10/14 14:03:40;;;;;;;;;;;19.10;93.90;;;;;;5097463;28;20297;-65
2022/10/14 14:06:10;;;;;;;;;;;19.10;93.90;;;;;;5111015;28;19924;-66
2022/10/14 14:08:37;;;;;;;;;;;18.80;93.80;;;;;;5095286;28;20289;-63
2022/10/14 14:11:05;;;;;;;;;;;19.10;93.90;;;;;;5095258;28;19925;-73
2022/10/14 14:13:32;;;;;;;;;;;19.20;93.90;;;;;;5091144;28;19989;-64
2022/10/14 14:15:58;;;;;;;;;;;18.90;93.90;;;;;;5068753;28;19931;-72
2022/10/14 14:18:33;;;;;;;;;;;18.70;93.80;;;;;;5077200;28;19924;-74
2022/10/14 14:20:58;;;;;;;;;;;19.00;93.90;;;;;;5110232;28;19930;-63
2022/10/14 14:23:25;;;;;;;;;;;19.10;93.90;;;;;;5096784;28;19928;-72
2022/10/14 14:25:50;;;;;;;;;;;19.10;93.90;;;;;;5114839;28;19932;-64
2022/10/14 14:28:16;;;;;;;;;;;18.90;93.90;;;;;;5105293;28;19924;-62
2022/10/14 14:30:46;;;;;;;;;;;19.00;93.90;;;;;;5095334;28;19925;-63
2022/10/14 14:33:15;;;;;;;;;;;18.90;93.90;;;;;;5079947;28;20019;-63